LIMP/PMF METAR and TAF weather

Enter ICAO airport designator
Station Type Date Time Source
LIMP METAR 2019/04/20 18:50 UTC NOAA

LIMP 201850Z 12003KT CAVOK 18/07 Q1024


Station Type Date Time Source
LIMP Decoded METAR 2019/04/20 18:50 UTC NOAA

Parma, Italy (LIMP) 44-49-17N 010-17-41E
Apr 20, 2019 - 02:50 PM EDT / 2019.04.20 1850 UTC
Wind: from the ESE (120 degrees) at 3 MPH (3 KT):0
Visibility: greater than 7 mile(s):0
Temperature: 64 F (18 C)
Dew Point: 44 F (7 C)
Relative Humidity: 48%
Pressure (altimeter): 30.24 in. Hg (1024 hPa)
ob: LIMP 201850Z 12003KT CAVOK 18/07 Q1024
cycle: 19

Station Type Date Time Source
LIMP TAF 2019/04/20 18:33 UTC NOAA

TAF
AMD TAF
AMD LIMP 201930Z 2018/2118 CNL

Example: see airport list